Time;durP1;ratioP1;P1;durP2;ratioP2;P2;SDS_P1;SDS_P2;PMS_P1;PMS_P2;Temp;Humidity;BMP_temperature;BMP_pressure;BME280_temperature;BME280_humidity;BME280_pressure;Samples;Min_cycle;Max_cycle;Signal;HPM_P1;HPM_P2
2021/01/24 00:03:25;;;;;;;10.00;8.40;;;;;;;2.01;100.00;98568.56;3456439;85;33009;-73
2021/01/24 00:08:26;;;;;;;7.60;6.80;;;;;;;2.25;100.00;98573.90;3456592;85;27955;-74
2021/01/24 00:13:27;;;;;;;6.67;5.97;;;;;;;2.25;100.00;98581.78;3456710;84;25864;-67
2021/01/24 00:18:28;;;;;;;8.17;7.23;;;;;;;2.00;100.00;98581.77;3456574;85;26788;-73
2021/01/24 00:23:30;;;;;;;8.70;6.47;;;;;;;2.27;100.00;98586.52;3456731;85;25856;-73
2021/01/24 00:28:31;;;;;;;7.10;6.50;;;;;;;2.21;98.76;98593.30;3456524;85;28761;-73
2021/01/24 00:33:32;;;;;;;9.57;7.73;;;;;;;2.19;99.47;98586.79;3456682;85;25775;-72
2021/01/24 00:38:33;;;;;;;7.57;6.87;;;;;;;2.04;100.00;98580.27;3456660;85;25792;-73
2021/01/24 00:43:34;;;;;;;7.40;6.67;;;;;;;2.22;99.54;98562.16;3456664;85;25737;-73
2021/01/24 00:48:39;;;;;;;8.60;7.77;;;;;;;2.16;99.22;98553.18;3456553;85;25797;-72
2021/01/24 00:53:40;;;;;;;8.10;6.50;;;;;;;2.17;99.10;98562.78;3456761;84;26409;-71
2021/01/24 00:58:42;;;;;;;9.53;6.17;;;;;;;1.91;100.00;98560.58;3456659;85;27220;-73
2021/01/24 01:03:43;;;;;;;11.30;9.53;;;;;;;1.85;100.00;98555.54;3456760;85;32579;-73
2021/01/24 01:08:44;;;;;;;11.63;9.37;;;;;;;1.78;100.00;98546.14;3456504;85;25798;-66
2021/01/24 01:13:45;;;;;;;11.90;9.00;;;;;;;1.81;100.00;98534.23;3456772;85;25834;-73
2021/01/24 01:18:46;;;;;;;10.67;8.67;;;;;;;1.72;100.00;98533.62;3458980;85;26362;-73
2021/01/24 01:23:47;;;;;;;10.63;7.53;;;;;;;1.77;100.00;98534.80;3460203;85;25798;-72
2021/01/24 01:28:48;;;;;;;8.13;7.13;;;;;;;1.73;100.00;98519.59;3458967;85;25758;-72
2021/01/24 01:33:49;;;;;;;9.43;8.07;;;;;;;1.68;100.00;98517.58;3456610;85;25774;-73
2021/01/24 01:38:50;;;;;;;10.90;8.70;;;;;;;1.68;100.00;98511.45;3456477;85;25756;-73
2021/01/24 01:43:51;;;;;;;9.03;8.10;;;;;;;1.96;100.00;98520.57;3456372;85;26240;-73
2021/01/24 01:48:53;;;;;;;9.73;8.00;;;;;;;1.69;100.00;98517.95;3456345;85;26256;-73
2021/01/24 01:53:55;;;;;;;10.47;8.53;;;;;;;1.73;100.00;98518.27;3456581;85;25792;-72
2021/01/24 01:58:56;;;;;;;10.27;8.63;;;;;;;1.55;100.00;98513.66;3478841;84;26187;-71
2021/01/24 02:04:17;;;;;;;8.67;7.63;;;;;;;1.82;100.00;98513.63;3479096;85;25798;-73
2021/01/24 02:09:52;;;;;;;10.43;9.27;;;;;;;1.65;100.00;98505.85;3445820;85;32530;-72
2021/01/24 02:15:09;;;;;;;8.80;7.97;;;;;;;1.55;100.00;98492.64;3479383;84;25779;-73
2021/01/24 02:20:22;;;;;;;10.57;9.20;;;;;;;1.50;100.00;98480.09;3477941;85;32472;-73
2021/01/24 02:26:06;;;;;;;9.33;8.00;;;;;;;1.48;100.00;98472.75;3479404;85;32513;-72
2021/01/24 02:31:08;;;;;;;10.77;9.67;;;;;;;1.43;100.00;98480.31;3479348;84;25974;-74
2021/01/24 02:36:11;;;;;;;10.03;7.97;;;;;;;1.23;100.00;98466.98;3457499;85;32532;-66
2021/01/24 02:41:15;;;;;;;9.43;8.43;;;;;;;1.33;100.00;98467.53;3479624;85;32462;-67
2021/01/24 02:46:17;;;;;;;10.57;9.47;;;;;;;1.15;100.00;98478.19;3480148;84;32481;-73
2021/01/24 02:51:19;;;;;;;10.67;9.50;;;;;;;1.28;100.00;98482.13;3457134;85;32502;-74
2021/01/24 02:56:22;;;;;;;9.87;8.87;;;;;;;1.22;100.00;98477.95;3472493;84;32488;-73
2021/01/24 03:01:23;;;;;;;10.03;9.00;;;;;;;1.31;100.00;98477.22;3438806;85;32528;-73
2021/01/24 03:06:24;;;;;;;10.80;9.70;;;;;;;1.48;100.00;98492.45;3456946;85;25807;-72
2021/01/24 03:11:27;;;;;;;10.80;9.70;;;;;;;1.50;100.00;98481.41;3456978;85;27838;-73
2021/01/24 03:16:31;;;;;;;11.70;10.60;;;;;;;1.69;100.00;98479.02;3456962;85;32599;-66
2021/01/24 03:21:36;;;;;;;11.20;10.10;;;;;;;1.74;100.00;98481.91;3456793;85;32467;-66
2021/01/24 03:26:37;;;;;;;9.93;9.00;;;;;;;1.71;100.00;98479.84;3457061;85;25868;-72
2021/01/24 03:32:06;;;;;;;10.70;9.60;;;;;;;1.75;100.00;98471.80;3456442;85;25791;-72
2021/01/24 03:37:07;;;;;;;11.87;10.10;;;;;;;1.82;100.00;98468.95;3259099;91;32531;-73
2021/01/24 03:42:09;;;;;;;12.20;10.97;;;;;;;1.75;100.00;98455.16;3259195;91;26864;-67
2021/01/24 03:47:11;;;;;;;12.70;11.40;;;;;;;1.77;100.00;98474.80;3259002;91;33119;-55
2021/01/24 03:52:12;;;;;;;11.80;10.50;;;;;;;1.64;100.00;98486.21;3259161;91;32579;-67
2021/01/24 03:57:13;;;;;;;10.77;9.77;;;;;;;1.62;100.00;98474.89;3259609;91;25750;-73
2021/01/24 04:02:14;;;;;;;11.03;9.97;;;;;;;1.73;100.00;98482.81;3259265;91;27760;-73
2021/01/24 04:07:15;;;;;;;12.37;11.07;;;;;;;1.71;100.00;98496.91;3259016;91;25890;-73
2021/01/24 04:12:16;;;;;;;12.60;11.30;;;;;;;1.64;100.00;98487.06;3259171;91;25824;-73
2021/01/24 04:17:17;;;;;;;11.63;10.43;;;;;;;1.62;100.00;98490.65;3259244;91;25830;-73
2021/01/24 04:22:19;;;;;;;13.07;11.37;;;;;;;1.56;100.00;98482.52;3259171;91;25862;-72
2021/01/24 04:27:19;;;;;;;11.40;10.23;;;;;;;1.57;100.00;98473.73;3258891;91;25793;-72
2021/01/24 04:32:24;;;;;;;11.50;10.33;;;;;;;1.64;100.00;98485.74;3259082;91;25821;-72
2021/01/24 04:37:25;;;;;;;11.65;10.45;;;;;;;1.63;100.00;98482.70;3312720;89;25844;-73
2021/01/24 04:42:27;;;;;;;12.97;11.50;;;;;;;1.57;100.00;98489.05;3312778;89;25772;-72
2021/01/24 04:47:29;;;;;;;13.87;12.40;;;;;;;1.69;100.00;98464.11;3298065;89;27789;-72
2021/01/24 04:52:30;;;;;;;14.40;12.90;;;;;;;1.70;100.00;98465.83;3312428;89;32611;-72
2021/01/24 04:57:32;;;;;;;13.60;12.17;;;;;;;1.63;100.00;98459.07;3312471;89;27810;-73
2021/01/24 05:02:35;;;;;;;13.50;12.10;;;;;;;1.64;100.00;98446.34;3312456;89;26813;-72
2021/01/24 05:07:36;;;;;;;13.97;12.00;;;;;;;1.73;100.00;98452.59;3312373;89;32578;-72
2021/01/24 05:12:37;;;;;;;14.80;12.87;;;;;;;1.75;100.00;98457.35;3312567;89;28262;-66
2021/01/24 05:17:58;;;;;;;14.90;12.90;;;;;;;1.67;100.00;98456.76;3312654;89;26324;-73
2021/01/24 05:23:04;;;;;;;13.63;11.87;;;;;;;1.59;100.00;98463.57;3312545;89;32491;-72
2021/01/24 05:28:23;;;;;;;14.40;13.00;;;;;;;1.64;100.00;98454.69;3312314;89;32503;-73
2021/01/24 05:33:24;;;;;;;14.73;13.17;;;;;;;1.71;100.00;98454.41;3308722;89;32685;-73
2021/01/24 05:38:31;;;;;;;13.33;11.90;;;;;;;1.68;100.00;98454.54;3287737;90;25874;-66
2021/01/24 05:43:42;;;;;;;15.83;13.27;;;;;;;1.59;100.00;98443.03;3287574;90;32501;-66
2021/01/24 05:48:50;;;;;;;15.57;12.30;;;;;;;1.59;100.00;98434.68;3283275;90;33083;-72
2021/01/24 05:53:51;;;;;;;13.83;12.43;;;;;;;1.55;100.00;98442.75;3287423;90;32572;-66
2021/01/24 05:59:01;;;;;;;15.27;13.67;;;;;;;1.53;100.00;98444.55;3287586;90;27840;-66
2021/01/24 06:04:02;;;;;;;14.83;13.13;;;;;;;1.56;100.00;98445.75;3287753;90;32544;-73
2021/01/24 06:09:03;;;;;;;20.83;15.83;;;;;;;1.56;100.00;98441.80;3287571;90;25831;-72
2021/01/24 06:14:07;;;;;;;15.83;14.10;;;;;;;1.48;100.00;98435.98;3287859;90;27279;-73
2021/01/24 06:19:13;;;;;;;16.00;14.33;;;;;;;1.45;100.00;98444.80;3287552;90;32974;-73
2021/01/24 06:24:26;;;;;;;16.03;14.33;;;;;;;1.38;100.00;98432.79;3287347;90;32635;-66
2021/01/24 06:29:29;;;;;;;;;;;;;;;1.42;100.00;98420.82;3290239;90;25781;-72
2021/01/24 06:34:40;;;;;;;20.23;16.67;;;;;;;1.37;100.00;98431.10;3302615;88;32518;-72
2021/01/24 06:39:56;;;;;;;19.67;17.20;;;;;;;1.34;100.00;98420.22;3341776;88;32945;-66
2021/01/24 06:44:57;;;;;;;20.60;16.13;;;;;;;1.34;100.00;98418.91;3341897;88;32408;-66
2021/01/24 06:49:58;;;;;;;20.57;15.97;;;;;;;1.36;100.00;98413.63;3342123;88;26308;-67
2021/01/24 06:55:05;;;;;;;18.63;16.33;;;;;;;1.42;100.00;98408.16;3342567;88;27243;-73
2021/01/24 07:00:18;;;;;;;21.90;18.93;;;;;;;1.57;100.00;98409.38;3336460;88;32555;-73
2021/01/24 07:05:26;;;;;;;24.00;21.10;;;;;;;1.48;100.00;98423.70;3358900;88;33088;-73
2021/01/24 07:10:42;;;;;;;28.07;21.40;;;;;;;1.45;100.00;98408.51;3336077;88;32964;-66
2021/01/24 07:15:49;;;;;;;23.10;19.40;;;;;;;1.52;100.00;98408.70;3344188;88;33578;-66
2021/01/24 07:20:54;;;;;;;19.80;15.87;;;;;;;1.52;100.00;98409.55;3355189;87;32503;-73
2021/01/24 07:25:56;;;;;;;17.93;15.93;;;;;;;1.51;100.00;98408.30;3350332;88;32562;-72
2021/01/24 07:31:05;;;;;;;21.17;17.73;;;;;;;1.54;100.00;98412.98;3356873;88;33147;-57
2021/01/24 07:36:07;;;;;;;22.53;17.97;;;;;;;1.59;100.00;98407.10;3365213;87;32608;-73
2021/01/24 07:41:09;;;;;;;23.33;19.40;;;;;;;1.54;100.00;98405.10;3344445;88;32594;-74
2021/01/24 07:46:10;;;;;;;18.93;16.53;;;;;;;1.58;100.00;98392.28;3330371;88;32740;-75
2021/01/24 07:51:11;;;;;;;23.77;18.93;;;;;;;1.57;100.00;98381.81;3258850;89;25895;-75
2021/01/24 07:56:12;;;;;;;26.77;20.82;;;;;;;1.73;100.00;98380.80;3257001;90;26840;-74
2021/01/24 08:01:16;;;;;;;28.23;21.27;;;;;;;1.78;100.00;98376.69;3261086;90;25852;-74
2021/01/24 08:06:17;;;;;;;31.77;23.80;;;;;;;1.78;100.00;98384.14;3256021;90;32961;-67
2021/01/24 08:11:18;;;;;;;27.20;20.70;;;;;;;1.71;100.00;98375.61;3257424;90;33055;-74
2021/01/24 08:16:36;;;;;;;31.50;23.03;;;;;;;1.76;100.00;98374.13;3278631;86;27408;-74
2021/01/24 08:21:38;;;;;;;32.80;25.67;;;;;;;1.83;100.00;98381.34;3333707;88;32456;-73
2021/01/24 08:26:40;;;;;;;34.50;25.37;;;;;;;1.88;100.00;98380.71;3338774;88;32527;-73
2021/01/24 08:31:41;;;;;;;31.83;23.90;;;;;;;1.85;100.00;98363.73;3318817;88;33270;-73
2021/01/24 08:36:44;;;;;;;28.60;20.83;;;;;;;1.82;100.00;98359.45;3355976;87;27016;-75
2021/01/24 08:41:49;;;;;;;25.50;20.73;;;;;;;1.86;100.00;98347.06;3398643;86;32732;-74
2021/01/24 08:46:53;;;;;;;24.20;20.92;;;;;;;1.87;100.00;98350.94;3411751;86;26327;-74
2021/01/24 08:51:59;;;;;;;28.00;22.73;;;;;;;1.89;100.00;98352.22;3414597;86;32520;-75
2021/01/24 08:57:22;;;;;;;27.37;22.55;;;;;;;1.83;100.00;98349.34;3396565;86;25902;-72
2021/01/24 09:02:36;;;;;;;29.07;21.40;;;;;;;1.85;100.00;98342.72;3407506;85;32571;-73
2021/01/24 09:07:43;;;;;;;27.70;22.90;;;;;;;1.87;100.00;98349.63;3391246;86;32999;-70
2021/01/24 09:12:50;;;;;;;28.80;22.67;;;;;;;1.94;100.00;98350.27;3396364;86;32690;-74
2021/01/24 09:17:54;;;;;;;29.50;25.20;;;;;;;1.90;100.00;98340.80;3388304;86;32452;-73
2021/01/24 09:22:56;;;;;;;30.90;25.53;;;;;;;1.84;100.00;98331.80;3399532;86;33994;-73
2021/01/24 09:27:57;;;;;;;28.00;23.17;;;;;;;1.86;100.00;98333.92;3393616;86;26600;-72
2021/01/24 09:32:58;;;;;;;22.73;20.03;;;;;;;1.85;100.00;98324.32;3409136;86;27166;-73
2021/01/24 09:37:59;;;;;;;22.60;20.20;;;;;;;1.88;100.00;98326.84;3419179;86;27365;-74
2021/01/24 09:43:00;;;;;;;25.57;20.60;;;;;;;1.88;100.00;98324.22;3395408;86;25875;-73
2021/01/24 09:48:01;;;;;;;24.27;20.90;;;;;;;1.81;100.00;98320.11;3440858;86;26087;-72
2021/01/24 09:53:02;;;;;;;24.60;20.80;;;;;;;1.76;100.00;98329.47;3440692;86;25941;-74
2021/01/24 09:58:03;;;;;;;24.50;21.05;;;;;;;1.70;100.00;98321.82;3441344;86;25785;-74
2021/01/24 10:03:05;;;;;;;25.13;22.43;;;;;;;1.72;100.00;98313.44;3440364;86;25842;-72
2021/01/24 10:08:06;;;;;;;25.53;21.33;;;;;;;1.80;100.00;98300.84;3407037;86;25937;-73
2021/01/24 10:13:07;;;;;;;23.70;20.77;;;;;;;1.80;100.00;98297.38;3375525;85;27369;-72
2021/01/24 10:18:10;;;;;;;27.57;21.07;;;;;;;1.87;100.00;98293.60;3334679;87;25884;-71
2021/01/24 10:23:16;;;;;;;22.47;19.27;;;;;;;1.88;100.00;98290.91;3332422;87;26272;-75
2021/01/24 10:28:18;;;;;;;21.63;18.57;;;;;;;1.93;100.00;98272.81;3368704;87;32563;-69
2021/01/24 10:33:21;;;;;;;23.80;21.33;;;;;;;2.03;100.00;98275.02;3345281;87;32670;-68
2021/01/24 10:38:22;;;;;;;27.80;24.33;;;;;;;2.09;100.00;98267.33;3366068;86;32673;-75
2021/01/24 10:43:23;;;;;;;27.37;23.60;;;;;;;2.12;100.00;98254.52;3381848;87;27878;-73
2021/01/24 10:48:24;;;;;;;27.13;23.73;;;;;;;2.14;100.00;98252.70;3381987;87;26897;-74
2021/01/24 10:53:25;;;;;;;26.27;23.43;;;;;;;2.19;100.00;98260.81;3381838;87;25828;-68
2021/01/24 10:58:27;;;;;;;28.83;24.27;;;;;;;2.26;100.00;98250.05;3382413;87;26444;-73
2021/01/24 11:03:28;;;;;;;29.83;24.80;;;;;;;2.19;100.00;98250.73;3383221;87;25855;-72
2021/01/24 11:08:29;;;;;;;28.43;22.57;;;;;;;2.17;100.00;98239.45;3381748;87;25938;-73
2021/01/24 11:13:30;;;;;;;25.10;21.37;;;;;;;2.15;100.00;98233.38;3365745;87;25822;-73
2021/01/24 11:18:31;;;;;;;25.67;21.73;;;;;;;2.18;100.00;98239.84;3368533;87;25856;-73
2021/01/24 11:23:32;;;;;;;28.07;24.03;;;;;;;2.20;100.00;98241.94;3367427;87;25837;-72
2021/01/24 11:28:33;;;;;;;28.73;23.47;;;;;;;2.16;100.00;98225.91;3371575;87;25865;-71
2021/01/24 11:33:34;;;;;;;27.17;21.60;;;;;;;2.07;100.00;98221.41;3374567;87;25854;-72
2021/01/24 11:38:35;;;;;;;26.30;21.10;;;;;;;2.13;100.00;98215.50;3380665;87;25927;-73
2021/01/24 11:43:37;;;;;;;26.73;21.67;;;;;;;2.15;100.00;98226.81;3379832;86;25857;-72
2021/01/24 11:48:38;;;;;;;27.37;22.30;;;;;;;2.15;100.00;98220.24;3366870;87;26421;-67
2021/01/24 11:53:39;;;;;;;30.40;23.77;;;;;;;2.13;100.00;98228.20;3378575;86;25820;-69
2021/01/24 11:58:40;;;;;;;30.10;23.42;;;;;;;2.05;100.00;98232.43;3378788;86;25953;-71
2021/01/24 12:03:41;;;;;;;30.57;23.90;;;;;;;1.89;100.00;98235.29;3375173;86;27493;-72
2021/01/24 12:08:42;;;;;;;25.63;21.00;;;;;;;1.86;100.00;98239.34;3370641;86;25825;-74
2021/01/24 12:13:43;;;;;;;27.33;21.70;;;;;;;1.55;100.00;98241.37;3372199;86;25933;-74
2021/01/24 12:18:45;;;;;;;27.73;22.77;;;;;;;1.52;100.00;98219.63;3385526;86;26338;-74
2021/01/24 12:23:46;;;;;;;28.47;22.93;;;;;;;1.78;100.00;98221.26;3374826;86;25935;-68
2021/01/24 12:28:47;;;;;;;26.87;22.47;;;;;;;1.57;100.00;98236.05;3373286;86;26372;-74
2021/01/24 12:33:48;;;;;;;25.03;21.10;;;;;;;1.46;100.00;98238.24;3368408;86;26179;-74
2021/01/24 12:38:50;;;;;;;28.80;23.73;;;;;;;1.33;100.00;98224.27;3366430;87;26054;-73
2021/01/24 12:43:51;;;;;;;28.43;23.37;;;;;;;1.72;100.00;98213.15;3366929;85;39197;-74
2021/01/24 12:48:52;;;;;;;23.53;20.03;;;;;;;1.63;100.00;98227.94;3361278;87;25978;-73
2021/01/24 12:53:53;;;;;;;24.20;19.43;;;;;;;1.40;100.00;98226.19;3357153;87;26483;-74
2021/01/24 12:58:54;;;;;;;26.10;19.23;;;;;;;1.53;100.00;98218.72;3363617;87;25933;-75
2021/01/24 13:03:55;;;;;;;24.27;19.50;;;;;;;1.42;100.00;98223.91;3364951;87;25833;-76
2021/01/24 13:08:56;;;;;;;25.53;20.87;;;;;;;1.36;100.00;98218.89;3363515;87;25914;-75
2021/01/24 13:13:57;;;;;;;26.30;20.80;;;;;;;1.49;100.00;98224.98;3367688;87;33246;-76
2021/01/24 13:18:58;;;;;;;24.97;20.10;;;;;;;1.39;100.00;98227.97;3354488;87;33228;-75
2021/01/24 13:24:00;;;;;;;24.30;18.60;;;;;;;1.05;100.00;98246.70;3368456;87;33239;-75
2021/01/24 13:29:01;;;;;;;22.98;18.23;;;;;;;0.90;100.00;98258.14;3365220;87;33263;-74
2021/01/24 13:34:02;;;;;;;25.80;18.63;;;;;;;0.92;100.00;98264.20;3361341;87;25927;-67
2021/01/24 13:39:05;;;;;;;23.93;17.77;;;;;;;0.72;100.00;98271.44;3359953;87;25923;-75
2021/01/24 13:44:10;;;;;;;19.57;14.13;;;;;;;0.66;100.00;98270.80;3418272;85;32317;-71
2021/01/24 13:49:11;;;;;;;;;;;;;;;0.43;100.00;98270.64;3438316;85;27514;-75
2021/01/24 13:54:14;;;;;;;24.23;17.23;;;;;;;0.45;100.00;98275.39;3439682;85;25958;-69
2021/01/24 13:59:15;;;;;;;23.67;18.07;;;;;;;0.61;100.00;98286.69;3439529;85;32589;-77
2021/01/24 14:04:19;;;;;;;24.83;19.53;;;;;;;0.63;100.00;98288.81;3445542;84;25745;-67
2021/01/24 14:09:22;;;;;;;23.23;17.97;;;;;;;0.63;100.00;98297.99;3366620;85;33306;-69
2021/01/24 14:14:23;;;;;;;21.57;17.10;;;;;;;0.53;100.00;98300.03;3335259;88;29608;-69
2021/01/24 14:19:25;;;;;;;20.07;16.03;;;;;;;0.36;100.00;98311.53;3324156;88;25872;-75
2021/01/24 14:24:26;;;;;;;24.43;16.30;;;;;;;0.38;100.00;98314.97;3358407;87;25872;-67
2021/01/24 14:29:27;;;;;;;20.77;17.07;;;;;;;0.34;100.00;98317.27;3387964;87;25781;-74
2021/01/24 14:34:28;;;;;;;21.57;17.10;;;;;;;0.37;100.00;98331.13;3392038;87;25920;-75
2021/01/24 14:39:29;;;;;;;21.63;18.37;;;;;;;0.37;100.00;98331.13;3386389;87;25837;-69
2021/01/24 14:44:31;;;;;;;29.80;22.00;;;;;;;0.49;100.00;98336.45;3393575;87;26533;-75
2021/01/24 14:49:32;;;;;;;26.40;20.20;;;;;;;0.54;100.00;98342.86;3394653;87;25895;-74
2021/01/24 14:54:34;;;;;;;34.77;25.57;;;;;;;0.55;100.00;98337.55;3390570;87;25877;-75
2021/01/24 14:59:35;;;;;;;28.83;22.53;;;;;;;0.60;100.00;98353.98;3389037;87;25857;-73
2021/01/24 15:04:36;;;;;;;27.03;20.50;;;;;;;0.52;100.00;98370.87;3377624;87;25813;-76
2021/01/24 15:09:41;;;;;;;31.45;23.62;;;;;;;0.53;100.00;98380.46;3368933;87;25782;-75
2021/01/24 15:14:40;;;;;;;36.27;26.80;;;;;;;0.54;100.00;98376.94;3351743;87;32580;-76
2021/01/24 15:19:42;;;;;;;34.30;23.87;;;;;;;0.39;100.00;98384.38;3332181;88;25765;-75
2021/01/24 15:24:43;;;;;;;34.03;23.17;;;;;;;0.44;100.00;98396.88;3351909;88;25906;-76
2021/01/24 15:29:44;;;;;;;42.13;29.27;;;;;;;0.35;100.00;98403.73;3378336;87;26124;-68
2021/01/24 15:34:50;;;;;;;38.70;26.83;;;;;;;0.46;100.00;98411.24;3409833;87;25804;-75
2021/01/24 15:39:50;;;;;;;36.53;24.63;;;;;;;0.40;100.00;98414.05;3402882;87;33590;-75
2021/01/24 15:44:51;;;;;;;33.10;22.70;;;;;;;0.30;100.00;98412.17;3332848;88;31889;-75
2021/01/24 15:49:52;;;;;;;32.07;21.93;;;;;;;0.25;100.00;98415.39;3309823;88;25851;-76
2021/01/24 15:54:53;;;;;;;28.23;19.00;;;;;;;0.30;100.00;98421.34;3306333;89;25947;-76
2021/01/24 15:59:54;;;;;;;34.20;22.57;;;;;;;0.27;100.00;98426.69;3305982;89;25860;-76
2021/01/24 16:04:55;;;;;;;28.52;20.72;;;;;;;0.28;100.00;98431.03;3307225;89;25788;-76
2021/01/24 16:09:57;;;;;;;32.10;23.73;;;;;;;0.27;100.00;98442.41;3307098;89;26418;-69
2021/01/24 16:14:58;;;;;;;32.37;23.33;;;;;;;0.47;100.00;98447.92;3307422;89;26241;-71
2021/01/24 16:20:00;;;;;;;28.47;21.73;;;;;;;0.42;100.00;98453.73;3306866;89;25904;-75
2021/01/24 16:25:01;;;;;;;33.50;24.57;;;;;;;0.46;100.00;98465.86;3307387;88;25960;-75
2021/01/24 16:30:03;;;;;;;27.60;20.23;;;;;;;0.57;100.00;98481.70;3306991;88;36131;-74
2021/01/24 16:35:06;;;;;;;32.97;25.37;;;;;;;0.42;100.00;98486.50;3409109;85;26045;-68
2021/01/24 16:40:11;;;;;;;38.17;27.80;;;;;;;0.42;100.00;98462.91;3404477;84;33562;-75
2021/01/24 16:45:12;;;;;;;35.20;26.03;;;;;;;0.60;100.00;98461.97;3343018;87;25862;-68
2021/01/24 16:50:15;;;;;;;45.50;31.17;;;;;;;0.49;100.00;98471.92;3343753;87;33535;-75
2021/01/24 16:55:17;;;;;;;47.80;30.50;;;;;;;0.55;100.00;98490.09;3406103;85;63034;-76
2021/01/24 17:00:19;;;;;;;45.77;30.80;;;;;;;0.59;100.00;98501.77;3456458;85;25867;-75
2021/01/24 17:05:20;;;;;;;47.10;28.00;;;;;;;0.63;100.00;98498.59;3436506;85;32340;-77
2021/01/24 17:10:21;;;;;;;43.60;27.90;;;;;;;0.59;100.00;98498.27;3456845;85;25785;-76
2021/01/24 17:15:22;;;;;;;45.73;28.63;;;;;;;0.66;100.00;98489.31;3467111;85;25851;-70
2021/01/24 17:20:24;;;;;;;43.13;28.90;;;;;;;0.69;100.00;98486.61;3430220;85;25902;-75
2021/01/24 17:25:29;;;;;;;45.43;29.23;;;;;;;0.71;100.00;98504.45;3454908;85;25988;-75
2021/01/24 17:30:31;;;;;;;41.67;27.67;;;;;;;0.73;100.00;98494.77;3428394;84;31372;-75
2021/01/24 17:35:35;;;;;;;37.07;23.60;;;;;;;0.77;100.00;98489.86;3449196;85;33340;-75
2021/01/24 17:40:38;;;;;;;34.87;21.70;;;;;;;0.71;100.00;98510.16;3448520;84;52892;-75
2021/01/24 17:45:40;;;;;;;36.77;25.10;;;;;;;0.76;100.00;98506.50;3481456;85;25745;-75
2021/01/24 17:50:43;;;;;;;35.00;24.50;;;;;;;0.80;100.00;98505.95;3441040;85;31813;-74
2021/01/24 17:55:44;;;;;;;34.53;23.03;;;;;;;0.77;100.00;98504.29;3435031;85;33261;-75
2021/01/24 18:00:45;;;;;;;33.53;23.67;;;;;;;0.82;100.00;98501.50;3457289;85;26145;-75
2021/01/24 18:05:46;;;;;;;38.07;25.23;;;;;;;0.81;100.00;98509.42;3457327;84;25809;-69
2021/01/24 18:10:49;;;;;;;32.15;22.45;;;;;;;0.71;100.00;98512.78;3473295;84;25810;-70
2021/01/24 18:15:50;;;;;;;36.17;25.53;;;;;;;0.67;100.00;98505.45;3421659;84;32587;-76
2021/01/24 18:20:53;;;;;;;37.07;24.77;;;;;;;0.82;100.00;98504.59;3460534;85;25792;-75
2021/01/24 18:25:56;;;;;;;33.17;23.43;;;;;;;0.73;100.00;98509.67;3428704;85;33203;-76
2021/01/24 18:31:02;;;;;;;33.10;24.23;;;;;;;0.75;100.00;98509.14;3422890;85;33447;-76
2021/01/24 18:36:05;;;;;;;29.80;21.67;;;;;;;0.75;100.00;98489.04;3463896;85;33331;-76
2021/01/24 18:41:05;;;;;;;27.23;20.13;;;;;;;0.71;100.00;98495.27;3468210;84;31354;-76
2021/01/24 18:46:07;;;;;;;33.03;23.47;;;;;;;0.68;100.00;98487.51;3455395;84;25886;-76
2021/01/24 18:51:09;;;;;;;30.10;20.73;;;;;;;0.77;100.00;98485.05;3503568;84;32405;-76
2021/01/24 18:56:11;;;;;;;29.90;21.97;;;;;;;0.77;100.00;98481.99;3477901;84;31810;-75
2021/01/24 19:01:12;;;;;;;29.27;20.13;;;;;;;0.68;100.00;98486.20;3486524;84;25869;-76
2021/01/24 19:06:14;;;;;;;24.77;17.83;;;;;;;0.77;100.00;98491.61;3493740;84;25860;-75
2021/01/24 19:11:15;;;;;;;24.43;17.37;;;;;;;0.70;100.00;98497.51;3491761;84;29394;-70
2021/01/24 19:16:16;;;;;;;23.70;17.30;;;;;;;0.70;100.00;98500.13;3477821;83;25915;-71
2021/01/24 19:21:17;;;;;;;24.60;17.67;;;;;;;0.71;100.00;98495.73;3495581;84;25849;-78
2021/01/24 19:26:21;;;;;;;25.00;17.10;;;;;;;0.65;100.00;98508.56;3491816;84;25967;-77
2021/01/24 19:31:22;;;;;;;23.50;16.33;;;;;;;0.57;100.00;98507.93;3474245;84;33380;-70
2021/01/24 19:36:26;;;;;;;22.73;16.57;;;;;;;0.57;100.00;98511.43;3521622;84;25887;-76
2021/01/24 19:41:29;;;;;;;21.17;16.13;;;;;;;0.58;100.00;98505.28;3482135;84;31659;-77
2021/01/24 19:46:32;;;;;;;22.77;15.30;;;;;;;0.57;100.00;98505.31;3470889;85;33305;-69
2021/01/24 19:51:38;;;;;;;19.37;15.10;;;;;;;0.54;100.00;98515.91;3494210;84;31423;-77
2021/01/24 19:56:39;;;;;;;21.73;15.43;;;;;;;0.54;100.00;98518.52;3489668;84;33324;-75
2021/01/24 20:01:44;;;;;;;19.57;14.97;;;;;;;0.57;100.00;98521.92;3485721;84;25799;-75
2021/01/24 20:06:45;;;;;;;19.82;13.98;;;;;;;0.57;100.00;98528.91;3514868;84;25865;-76
2021/01/24 20:11:49;;;;;;;17.83;13.70;;;;;;;0.55;100.00;98543.84;3520469;84;26009;-76
2021/01/24 20:16:54;;;;;;;17.48;12.78;;;;;;;0.56;100.00;98542.48;3520421;84;26120;-77
2021/01/24 20:21:55;;;;;;;15.23;11.83;;;;;;;0.54;100.00;98551.30;3522053;83;32243;-75
2021/01/24 20:27:00;;;;;;;14.03;11.17;;;;;;;0.55;100.00;98547.78;3523559;84;25844;-77
2021/01/24 20:32:01;;;;;;;16.70;12.30;;;;;;;0.59;100.00;98541.53;3519376;84;31990;-76
2021/01/24 20:37:05;;;;;;;16.97;12.00;;;;;;;0.72;100.00;98554.69;3512606;84;25988;-76
2021/01/24 20:42:06;;;;;;;16.37;11.67;;;;;;;0.69;100.00;98557.42;3485568;84;31492;-76
2021/01/24 20:47:08;;;;;;;14.50;10.97;;;;;;;0.67;100.00;98554.44;3480985;83;25834;-76
2021/01/24 20:52:10;;;;;;;13.67;10.47;;;;;;;0.60;100.00;98549.81;3478708;84;26235;-76
2021/01/24 20:57:12;;;;;;;14.00;11.83;;;;;;;0.60;100.00;98547.19;3472672;84;33302;-77
2021/01/24 21:02:13;;;;;;;16.27;11.80;;;;;;;0.66;100.00;98543.53;3468934;84;33665;-77
2021/01/24 21:07:16;;;;;;;17.07;12.47;;;;;;;0.58;100.00;98548.98;3477811;84;25818;-76
2021/01/24 21:12:23;;;;;;;16.60;13.13;;;;;;;0.58;100.00;98537.19;3471547;84;33742;-77
2021/01/24 21:17:24;;;;;;;21.07;14.50;;;;;;;0.60;100.00;98538.01;3454513;84;32439;-69
2021/01/24 21:22:25;;;;;;;27.43;17.23;;;;;;;0.65;100.00;98550.53;3361381;85;25873;-77
2021/01/24 21:27:26;;;;;;;25.27;18.37;;;;;;;0.61;100.00;98548.91;3357259;87;25717;-77
2021/01/24 21:32:28;;;;;;;23.87;17.33;;;;;;;0.58;100.00;98547.24;3357432;87;26544;-60
2021/01/24 21:37:29;;;;;;;26.93;18.77;;;;;;;0.55;100.00;98552.56;3357727;87;25845;-77
2021/01/24 21:42:30;;;;;;;28.87;20.03;;;;;;;0.60;100.00;98562.92;3401801;87;25868;-77
2021/01/24 21:47:31;;;;;;;30.63;20.47;;;;;;;0.63;100.00;98558.91;3412488;87;25870;-77
2021/01/24 21:52:32;;;;;;;32.90;23.63;;;;;;;0.62;100.00;98571.61;3412655;87;25741;-70
2021/01/24 21:57:33;;;;;;;29.13;19.90;;;;;;;0.59;100.00;98545.46;3411842;87;25798;-76
2021/01/24 22:02:35;;;;;;;28.13;19.10;;;;;;;0.59;100.00;98552.02;3411948;87;25869;-76
2021/01/24 22:07:36;;;;;;;29.83;20.13;;;;;;;0.59;100.00;98553.33;3412990;85;25892;-69
2021/01/24 22:12:37;;;;;;;26.10;18.00;;;;;;;0.52;100.00;98558.34;3469154;85;25738;-77
2021/01/24 22:17:38;;;;;;;27.60;20.00;;;;;;;0.47;100.00;98558.03;3468851;85;26300;-77
2021/01/24 22:22:40;;;;;;;26.73;19.37;;;;;;;0.44;100.00;98556.80;3468650;85;26382;-78
2021/01/24 22:27:41;;;;;;;28.20;20.13;;;;;;;0.43;100.00;98562.94;3467617;85;27129;-77
2021/01/24 22:32:42;;;;;;;25.90;17.50;;;;;;;0.43;100.00;98562.94;3468879;85;25822;-76
2021/01/24 22:37:43;;;;;;;26.63;18.97;;;;;;;0.38;100.00;98559.59;3468857;85;26251;-77
2021/01/24 22:42:44;;;;;;;28.27;18.87;;;;;;;0.33;100.00;98570.66;3461848;85;32200;-77
2021/01/24 22:47:46;;;;;;;27.73;18.97;;;;;;;0.34;100.00;98560.59;3460016;85;25753;-69
2021/01/24 22:52:47;;;;;;;28.10;18.77;;;;;;;0.30;100.00;98549.77;3460231;85;25891;-69
2021/01/24 22:57:48;;;;;;;24.33;17.73;;;;;;;0.24;100.00;98552.13;3460198;85;31477;-77
2021/01/24 23:02:49;;;;;;;26.77;18.63;;;;;;;0.21;100.00;98551.35;3460489;85;25787;-70
2021/01/24 23:07:51;;;;;;;26.17;17.30;;;;;;;0.19;100.00;98544.82;3460489;85;31183;-70
2021/01/24 23:12:52;;;;;;;26.27;17.83;;;;;;;0.19;100.00;98550.06;3460583;85;31046;-76
2021/01/24 23:17:53;;;;;;;26.13;18.67;;;;;;;0.12;100.00;98538.91;3460514;85;30925;-76